Time;durP1;ratioP1;P1;durP2;ratioP2;P2;SDS_P1;SDS_P2;PMS_P1;PMS_P2;Temp;Humidity;BMP_temperature;BMP_pressure;BME280_temperature;BME280_humidity;BME280_pressure;Samples;Min_cycle;Max_cycle;Signal;HPM_P1;HPM_P2
2023/12/31 00:01:47;;;;;;;15.45;10.45;;;;;;;;;;6184525;23;20021;-65
2023/12/31 00:04:15;;;;;;;17.33;11.05;;;;;;;;;;6184644;23;20064;-65
2023/12/31 00:06:43;;;;;;;16.88;9.90;;;;;;;;;;6184570;23;20025;-65
2023/12/31 00:09:10;;;;;;;15.20;10.80;;;;;;;;;;6183040;23;20048;-65
2023/12/31 00:11:37;;;;;;;17.08;10.38;;;;;;;;;;6184475;23;20032;-65
2023/12/31 00:14:05;;;;;;;16.50;10.27;;;;;;;;;;6184329;23;20494;-65
2023/12/31 00:16:33;;;;;;;16.40;10.55;;;;;;;;;;6184609;23;20087;-65
2023/12/31 00:19:02;;;;;;;16.02;10.23;;;;;;;;;;6184533;23;20454;-65
2023/12/31 00:21:29;;;;;;;16.98;10.98;;;;;;;;;;6185545;23;20024;-65
2023/12/31 00:23:57;;;;;;;16.25;10.40;;;;;;;;;;6186402;23;20017;-65
2023/12/31 00:26:24;;;;;;;16.38;10.30;;;;;;;;;;6186474;23;20031;-65
2023/12/31 00:29:03;;;;;;;17.35;10.25;;;;;;;;;;6186804;23;20420;-65
2023/12/31 00:31:31;;;;;;;15.48;10.60;;;;;;;;;;6186278;23;20447;-65
2023/12/31 00:33:58;;;;;;;18.58;10.27;;;;;;;;;;6184719;23;20103;-66
2023/12/31 00:36:27;;;;;;;16.48;10.95;;;;;;;;;;6184855;23;20640;-65
2023/12/31 00:38:55;;;;;;;17.65;10.15;;;;;;;;;;6186725;23;20021;-65
2023/12/31 00:41:23;;;;;;;19.65;11.25;;;;;;;;;;6184838;23;20025;-65
2023/12/31 00:43:51;;;;;;;18.05;11.18;;;;;;;;;;6186520;23;20435;-65
2023/12/31 00:46:19;;;;;;;16.85;10.40;;;;;;;;;;6160253;23;20021;-66
2023/12/31 00:48:47;;;;;;;15.55;10.13;;;;;;;;;;6184824;23;20048;-66
2023/12/31 00:51:15;;;;;;;17.83;10.60;;;;;;;;;;6184590;23;20021;-66
2023/12/31 00:53:42;;;;;;;15.93;11.57;;;;;;;;;;6186036;23;20021;-66
2023/12/31 00:56:10;;;;;;;16.52;10.88;;;;;;;;;;6184583;23;20025;-65
2023/12/31 00:58:37;;;;;;;16.92;10.70;;;;;;;;;;6184492;23;20447;-65
2023/12/31 01:01:05;;;;;;;16.70;11.13;;;;;;;;;;6184683;23;20021;-65
2023/12/31 01:03:33;;;;;;;16.88;11.05;;;;;;;;;;6184639;23;20017;-66
2023/12/31 01:06:05;;;;;;;18.77;11.20;;;;;;;;;;6186183;23;20021;-65
2023/12/31 01:08:33;;;;;;;18.52;10.80;;;;;;;;;;6184525;23;20021;-66
2023/12/31 01:11:00;;;;;;;16.48;10.60;;;;;;;;;;6184301;23;20075;-66
2023/12/31 01:13:29;;;;;;;18.50;11.93;;;;;;;;;;6186187;23;20028;-65
2023/12/31 01:15:56;;;;;;;18.55;11.27;;;;;;;;;;6185853;23;20027;-65
2023/12/31 01:18:24;;;;;;;16.70;11.13;;;;;;;;;;6186069;23;20017;-65
2023/12/31 01:20:51;;;;;;;15.90;10.88;;;;;;;;;;6184463;23;20021;-66
2023/12/31 01:23:19;;;;;;;16.77;10.80;;;;;;;;;;6184411;23;20466;-65
2023/12/31 01:25:46;;;;;;;17.52;11.23;;;;;;;;;;6184288;23;20108;-65
2023/12/31 01:28:14;;;;;;;16.02;11.38;;;;;;;;;;6184394;23;20040;-65
2023/12/31 01:30:43;;;;;;;18.13;11.82;;;;;;;;;;6185885;23;20075;-65
2023/12/31 01:33:11;;;;;;;20.98;12.38;;;;;;;;;;6183732;23;20157;-65
2023/12/31 01:35:38;;;;;;;18.95;12.25;;;;;;;;;;6184177;23;20028;-65
2023/12/31 01:38:06;;;;;;;20.83;11.68;;;;;;;;;;6183951;23;20017;-65
2023/12/31 01:40:33;;;;;;;17.75;12.20;;;;;;;;;;6184322;23;20020;-66
2023/12/31 01:43:01;;;;;;;24.33;12.93;;;;;;;;;;6184141;23;20064;-66
2023/12/31 01:45:29;;;;;;;19.85;12.77;;;;;;;;;;6184174;23;20076;-65
2023/12/31 01:47:57;;;;;;;20.67;12.43;;;;;;;;;;6184162;23;20056;-65
2023/12/31 01:50:25;;;;;;;21.30;12.32;;;;;;;;;;6184209;23;20021;-65
2023/12/31 01:52:53;;;;;;;19.98;13.10;;;;;;;;;;6184130;23;20096;-65
2023/12/31 01:55:21;;;;;;;19.70;12.38;;;;;;;;;;6184406;23;20025;-65
2023/12/31 01:57:49;;;;;;;18.17;11.85;;;;;;;;;;6184290;23;20439;-65
2023/12/31 02:00:17;;;;;;;19.33;12.13;;;;;;;;;;6160172;23;20021;-65
2023/12/31 02:02:46;;;;;;;20.20;13.18;;;;;;;;;;6184178;23;20439;-65
2023/12/31 02:05:14;;;;;;;20.67;12.65;;;;;;;;;;6184041;23;20021;-65
2023/12/31 02:07:41;;;;;;;22.10;13.90;;;;;;;;;;6185824;23;20436;-66
2023/12/31 02:10:09;;;;;;;20.38;13.25;;;;;;;;;;6185610;23;20024;-65
2023/12/31 02:12:37;;;;;;;23.02;12.85;;;;;;;;;;6185704;23;20013;-65
2023/12/31 02:15:06;;;;;;;21.65;13.07;;;;;;;;;;6159552;23;20021;-65
2023/12/31 02:17:33;;;;;;;21.10;13.55;;;;;;;;;;6184192;23;20465;-65
2023/12/31 02:20:02;;;;;;;24.40;14.43;;;;;;;;;;6185546;23;20013;-65
2023/12/31 02:22:29;;;;;;;26.50;14.68;;;;;;;;;;6184057;23;20399;-65
2023/12/31 02:25:05;;;;;;;23.95;14.68;;;;;;;;;;6185602;23;20044;-65
2023/12/31 02:27:32;;;;;;;25.03;15.07;;;;;;;;;;6185496;23;20024;-65
2023/12/31 02:30:00;;;;;;;24.58;14.93;;;;;;;;;;6183704;23;20024;-65
2023/12/31 02:32:28;;;;;;;26.90;14.90;;;;;;;;;;6183672;23;20068;-65
2023/12/31 02:34:55;;;;;;;25.77;15.60;;;;;;;;;;6185092;23;20016;-65
2023/12/31 02:37:23;;;;;;;25.55;15.25;;;;;;;;;;6183557;23;20032;-65
2023/12/31 02:39:50;;;;;;;21.52;14.57;;;;;;;;;;6183650;23;20021;-65
2023/12/31 02:42:18;;;;;;;23.88;15.82;;;;;;;;;;6183636;23;20072;-65
2023/12/31 02:44:45;;;;;;;24.08;15.75;;;;;;;;;;6185147;23;20017;-65
2023/12/31 02:47:14;;;;;;;31.08;14.75;;;;;;;;;;6183634;23;20024;-65
2023/12/31 02:49:41;;;;;;;23.33;14.30;;;;;;;;;;6183602;23;20401;-65
2023/12/31 02:52:14;;;;;;;24.02;14.95;;;;;;;;;;6184833;23;20040;-66
2023/12/31 02:54:43;;;;;;;25.27;15.27;;;;;;;;;;6183340;23;20029;-65
2023/12/31 02:57:11;;;;;;;24.95;15.48;;;;;;;;;;6183377;23;20511;-66
2023/12/31 02:59:38;;;;;;;27.00;15.88;;;;;;;;;;6185124;23;20064;-65
2023/12/31 03:02:06;;;;;;;23.15;15.35;;;;;;;;;;6183525;23;20076;-66
2023/12/31 03:04:34;;;;;;;24.98;15.50;;;;;;;;;;6183282;23;20021;-66
2023/12/31 03:07:01;;;;;;;25.48;15.93;;;;;;;;;;6183447;23;20039;-66
2023/12/31 03:09:29;;;;;;;25.17;15.02;;;;;;;;;;6183355;23;20032;-66
2023/12/31 03:11:56;;;;;;;24.80;15.95;;;;;;;;;;6158893;23;20017;-66
2023/12/31 03:14:24;;;;;;;26.83;15.45;;;;;;;;;;6183414;23;20023;-66
2023/12/31 03:16:51;;;;;;;24.33;14.85;;;;;;;;;;6183348;23;20024;-65
2023/12/31 03:19:19;;;;;;;25.83;14.85;;;;;;;;;;6185129;23;20023;-65
2023/12/31 03:21:49;;;;;;;25.13;14.30;;;;;;;;;;6158920;23;20551;-65
2023/12/31 03:24:20;;;;;;;24.55;15.57;;;;;;;;;;6183084;23;20041;-65
2023/12/31 03:26:48;;;;;;;22.02;14.07;;;;;;;;;;6183024;23;20021;-65
2023/12/31 03:29:15;;;;;;;21.63;14.30;;;;;;;;;;6183379;23;20025;-65
2023/12/31 03:31:43;;;;;;;26.38;15.45;;;;;;;;;;6183296;23;20466;-65
2023/12/31 03:34:11;;;;;;;23.35;14.60;;;;;;;;;;6183413;23;20108;-65
2023/12/31 03:36:39;;;;;;;24.55;13.80;;;;;;;;;;6183146;23;20025;-65
2023/12/31 03:39:06;;;;;;;23.90;14.60;;;;;;;;;;6183636;23;20064;-65
2023/12/31 03:41:34;;;;;;;24.63;14.30;;;;;;;;;;6183050;23;20099;-65
2023/12/31 03:44:01;;;;;;;25.35;14.38;;;;;;;;;;6184843;23;20435;-65
2023/12/31 03:46:29;;;;;;;21.13;14.55;;;;;;;;;;6183135;23;20028;-65
2023/12/31 03:48:58;;;;;;;24.88;15.35;;;;;;;;;;6184831;23;20470;-65
2023/12/31 03:51:25;;;;;;;24.85;14.57;;;;;;;;;;6183164;23;20394;-65
2023/12/31 03:53:53;;;;;;;27.58;15.80;;;;;;;;;;6183169;23;20021;-65
2023/12/31 03:56:20;;;;;;;25.77;16.38;;;;;;;;;;6183821;23;20052;-65
2023/12/31 03:58:48;;;;;;;27.10;16.58;;;;;;;;;;6186638;23;20402;-65
2023/12/31 04:01:16;;;;;;;24.80;15.95;;;;;;;;;;6185151;23;20032;-65
2023/12/31 04:03:43;;;;;;;31.98;19.45;;;;;;;;;;6185103;23;20455;-65
2023/12/31 04:06:11;;;;;;;34.95;21.48;;;;;;;;;;6185260;23;20025;-65
2023/12/31 04:08:39;;;;;;;42.22;27.13;;;;;;;;;;6184888;23;20021;-65
2023/12/31 04:11:06;;;;;;;54.47;38.15;;;;;;;;;;6186711;23;20128;-65
2023/12/31 04:13:34;;;;;;;41.53;27.35;;;;;;;;;;6185052;23;20025;-65
2023/12/31 04:16:03;;;;;;;37.53;24.25;;;;;;;;;;6160535;23;20091;-65
2023/12/31 04:18:30;;;;;;;36.10;22.13;;;;;;;;;;6185077;23;20044;-65
2023/12/31 04:20:58;;;;;;;32.47;19.52;;;;;;;;;;6187103;23;20021;-66
2023/12/31 04:23:25;;;;;;;28.67;18.15;;;;;;;;;;6186346;23;20383;-65
2023/12/31 04:25:53;;;;;;;33.38;20.52;;;;;;;;;;6185013;23;20339;-65
2023/12/31 04:28:22;;;;;;;31.92;18.70;;;;;;;;;;6186466;23;20096;-65
2023/12/31 04:30:49;;;;;;;30.48;19.55;;;;;;;;;;6186372;23;20017;-65
2023/12/31 04:33:18;;;;;;;33.85;19.65;;;;;;;;;;6184873;23;20474;-65
2023/12/31 04:35:46;;;;;;;31.45;18.42;;;;;;;;;;6184616;23;20379;-65
2023/12/31 04:38:18;;;;;;;29.73;18.83;;;;;;;;;;6184783;23;20099;-65
2023/12/31 04:40:47;;;;;;;33.20;19.25;;;;;;;;;;6186294;23;20021;-65
2023/12/31 04:43:15;;;;;;;38.70;24.73;;;;;;;;;;6184597;23;20017;-65
2023/12/31 04:45:42;;;;;;;49.55;29.77;;;;;;;;;;6184985;23;20033;-65
2023/12/31 04:48:10;;;;;;;59.85;35.90;;;;;;;;;;6186091;23;20084;-65
2023/12/31 04:50:38;;;;;;;47.47;26.55;;;;;;;;;;6184381;23;20017;-65
2023/12/31 04:53:06;;;;;;;45.58;25.40;;;;;;;;;;6186220;23;20498;-65
2023/12/31 04:55:34;;;;;;;35.17;18.88;;;;;;;;;;6184577;23;20462;-65
2023/12/31 04:58:01;;;;;;;28.42;16.20;;;;;;;;;;6184302;23;20025;-65
2023/12/31 05:00:29;;;;;;;22.73;15.10;;;;;;;;;;6186208;23;20037;-65
2023/12/31 05:02:56;;;;;;;24.40;14.10;;;;;;;;;;6160082;23;20021;-65
2023/12/31 05:05:26;;;;;;;27.23;15.85;;;;;;;;;;6186245;23;20013;-65
2023/12/31 05:07:53;;;;;;;27.65;16.73;;;;;;;;;;6184346;23;20017;-65
2023/12/31 05:10:21;;;;;;;29.85;17.90;;;;;;;;;;6186224;23;20076;-65
2023/12/31 05:12:48;;;;;;;34.13;20.10;;;;;;;;;;6186273;23;20036;-65
2023/12/31 05:15:17;;;;;;;38.13;23.55;;;;;;;;;;6186161;23;20063;-65
2023/12/31 05:17:44;;;;;;;36.45;22.65;;;;;;;;;;6186190;23;20020;-65
2023/12/31 05:20:12;;;;;;;41.45;23.92;;;;;;;;;;6186028;23;20502;-66
2023/12/31 05:22:40;;;;;;;45.05;25.55;;;;;;;;;;6186057;23;20113;-65
2023/12/31 05:25:08;;;;;;;60.22;28.85;;;;;;;;;;6184403;23;20071;-65
2023/12/31 05:27:35;;;;;;;65.93;31.05;;;;;;;;;;6186276;23;20021;-66
2023/12/31 05:30:03;;;;;;;58.25;29.20;;;;;;;;;;6184516;23;20021;-66
2023/12/31 05:32:31;;;;;;;61.28;30.00;;;;;;;;;;6185952;23;20028;-66
2023/12/31 05:34:58;;;;;;;56.90;28.67;;;;;;;;;;6185923;23;20348;-66
2023/12/31 05:37:26;;;;;;;59.13;31.30;;;;;;;;;;6184222;23;20028;-66
2023/12/31 05:39:53;;;;;;;57.95;30.00;;;;;;;;;;6185846;23;20331;-66
2023/12/31 05:42:21;;;;;;;60.92;28.60;;;;;;;;;;6185661;23;20024;-66
2023/12/31 05:44:49;;;;;;;58.97;30.67;;;;;;;;;;6186076;23;20096;-66
2023/12/31 05:47:16;;;;;;;59.22;28.52;;;;;;;;;;6185954;23;20016;-66
2023/12/31 05:50:04;;;;;;;63.30;30.92;;;;;;;;;;6184381;23;20027;-66
2023/12/31 05:52:32;;;;;;;69.10;33.78;;;;;;;;;;6185543;23;20470;-65
2023/12/31 05:54:59;;;;;;;72.90;34.67;;;;;;;;;;6185625;23;20041;-66
2023/12/31 05:57:27;;;;;;;84.80;39.05;;;;;;;;;;6185318;23;20043;-66
2023/12/31 05:59:55;;;;;;;78.88;37.97;;;;;;;;;;6185429;23;20013;-65
2023/12/31 06:02:22;;;;;;;72.18;35.50;;;;;;;;;;6185603;23;20385;-64
2023/12/31 06:04:50;;;;;;;70.05;33.95;;;;;;;;;;6185511;23;20035;-64
2023/12/31 06:07:18;;;;;;;61.80;30.55;;;;;;;;;;6185374;23;20017;-65
2023/12/31 06:09:45;;;;;;;66.30;32.70;;;;;;;;;;6185247;23;20017;-64
2023/12/31 06:12:13;;;;;;;60.15;27.45;;;;;;;;;;6185596;23;20013;-64
2023/12/31 06:14:40;;;;;;;60.58;28.60;;;;;;;;;;6185199;23;20025;-64
2023/12/31 06:17:08;;;;;;;105.35;37.17;;;;;;;;;;6185419;23;20021;-64
2023/12/31 06:19:36;;;;;;;107.72;38.92;;;;;;;;;;6183754;23;20020;-64
2023/12/31 06:22:04;;;;;;;102.28;40.08;;;;;;;;;;6185385;23;20016;-64
2023/12/31 06:24:31;;;;;;;120.50;46.55;;;;;;;;;;6185858;23;20096;-64
2023/12/31 06:26:59;;;;;;;140.85;53.22;;;;;;;;;;6183692;23;20032;-64
2023/12/31 06:29:27;;;;;;;131.95;50.92;;;;;;;;;;6185485;23;20340;-64
2023/12/31 06:31:54;;;;;;;149.00;56.92;;;;;;;;;;6185392;23;20017;-64
2023/12/31 06:34:22;;;;;;;127.95;51.00;;;;;;;;;;6183734;23;20027;-64
2023/12/31 06:36:50;;;;;;;138.45;53.33;;;;;;;;;;6185387;23;20101;-64
2023/12/31 06:39:18;;;;;;;142.63;56.75;;;;;;;;;;6184881;23;20020;-64
2023/12/31 06:41:45;;;;;;;160.32;61.53;;;;;;;;;;6185180;23;20365;-63
2023/12/31 06:44:13;;;;;;;145.85;60.42;;;;;;;;;;6185169;23;20021;-65
2023/12/31 06:46:41;;;;;;;142.27;60.70;;;;;;;;;;6185219;23;20321;-67
2023/12/31 06:49:08;;;;;;;234.07;93.35;;;;;;;;;;6185241;23;20021;-68
2023/12/31 06:51:37;;;;;;;176.63;69.82;;;;;;;;;;6183868;23;20044;-68
2023/12/31 06:54:04;;;;;;;210.32;68.75;;;;;;;;;;6184598;23;20503;-68
2023/12/31 06:56:32;;;;;;;177.10;70.70;;;;;;;;;;6184715;23;20076;-68
2023/12/31 06:59:00;;;;;;;234.18;66.82;;;;;;;;;;6183968;23;20025;-68
2023/12/31 07:01:28;;;;;;;168.45;64.25;;;;;;;;;;6182647;23;20100;-69
2023/12/31 07:03:55;;;;;;;187.40;62.60;;;;;;;;;;6184704;23;20048;-68
2023/12/31 07:06:23;;;;;;;164.32;57.38;;;;;;;;;;6183606;23;20083;-67
2023/12/31 07:08:50;;;;;;;171.68;54.50;;;;;;;;;;6185552;23;20067;-68
2023/12/31 07:11:18;;;;;;;190.90;59.72;;;;;;;;;;6184985;23;20013;-67
2023/12/31 07:13:46;;;;;;;161.13;56.20;;;;;;;;;;6185124;23;20021;-67
2023/12/31 07:16:14;;;;;;;158.80;57.67;;;;;;;;;;6184817;23;20088;-71
2023/12/31 07:18:42;;;;;;;237.75;63.17;;;;;;;;;;6185299;23;20125;-68
2023/12/31 07:21:10;;;;;;;165.00;58.60;;;;;;;;;;6184984;23;20017;-69
2023/12/31 07:23:39;;;;;;;180.48;54.33;;;;;;;;;;6184937;23;20021;-66
2023/12/31 07:26:07;;;;;;;196.25;52.63;;;;;;;;;;6184897;23;20348;-66
2023/12/31 07:28:34;;;;;;;165.88;50.80;;;;;;;;;;6184965;23;20021;-66
2023/12/31 07:31:02;;;;;;;137.18;47.92;;;;;;;;;;6184668;23;20017;-65
2023/12/31 07:33:30;;;;;;;155.38;52.55;;;;;;;;;;6183405;23;20056;-65
2023/12/31 07:35:58;;;;;;;146.77;52.67;;;;;;;;;;6184975;23;20017;-66
2023/12/31 07:38:26;;;;;;;176.10;52.72;;;;;;;;;;6184911;23;20096;-65
2023/12/31 07:40:54;;;;;;;205.98;52.53;;;;;;;;;;6183592;23;20087;-66
2023/12/31 07:43:21;;;;;;;147.52;50.08;;;;;;;;;;6185073;23;20328;-66
2023/12/31 07:45:49;;;;;;;179.13;45.42;;;;;;;;;;6175985;23;20021;-65
2023/12/31 07:48:16;;;;;;;141.30;45.67;;;;;;;;;;6177387;23;20096;-65
2023/12/31 07:50:44;;;;;;;132.60;38.92;;;;;;;;;;6176334;23;20101;-65
2023/12/31 07:53:12;;;;;;;126.45;39.00;;;;;;;;;;6177557;23;20017;-66
2023/12/31 07:55:39;;;;;;;90.95;35.70;;;;;;;;;;6177039;23;20032;-65
2023/12/31 07:58:07;;;;;;;106.85;32.60;;;;;;;;;;6176649;23;20048;-66
2023/12/31 08:00:35;;;;;;;92.60;37.95;;;;;;;;;;6175606;23;20055;-65
2023/12/31 08:03:02;;;;;;;91.60;39.05;;;;;;;;;;6177514;23;20055;-64
2023/12/31 08:05:33;;;;;;;113.45;48.17;;;;;;;;;;6176849;23;20021;-65
2023/12/31 08:08:01;;;;;;;114.57;47.47;;;;;;;;;;6177589;23;20021;-65
2023/12/31 08:10:28;;;;;;;100.00;44.60;;;;;;;;;;6177701;23;20021;-65
2023/12/31 08:12:56;;;;;;;91.18;37.85;;;;;;;;;;6177361;23;20023;-65
2023/12/31 08:15:23;;;;;;;77.68;36.22;;;;;;;;;;6177611;23;20024;-65
2023/12/31 08:17:51;;;;;;;74.70;33.05;;;;;;;;;;6177300;23;20055;-64
2023/12/31 08:20:18;;;;;;;72.80;33.40;;;;;;;;;;6177402;23;20028;-65
2023/12/31 08:22:46;;;;;;;74.20;32.08;;;;;;;;;;6175688;23;20021;-64
2023/12/31 08:25:14;;;;;;;75.13;34.85;;;;;;;;;;6177018;23;20581;-64
2023/12/31 08:27:42;;;;;;;71.13;34.13;;;;;;;;;;6174650;23;20025;-65
2023/12/31 08:30:10;;;;;;;77.60;35.78;;;;;;;;;;6176766;23;20132;-64
2023/12/31 08:32:39;;;;;;;96.32;45.00;;;;;;;;;;6176474;23;20096;-65
2023/12/31 08:35:08;;;;;;;119.30;61.00;;;;;;;;;;6178264;23;20017;-65
2023/12/31 08:37:36;;;;;;;136.35;65.45;;;;;;;;;;6176822;23;20021;-65
2023/12/31 08:40:06;;;;;;;75.00;39.42;;;;;;;;;;6177093;23;20024;-65
2023/12/31 08:42:33;;;;;;;56.20;27.75;;;;;;;;;;6178160;23;20025;-65
2023/12/31 08:45:03;;;;;;;51.45;27.23;;;;;;;;;;6178911;23;20017;-65
2023/12/31 08:47:34;;;;;;;58.97;29.17;;;;;;;;;;6178883;23;20553;-66
2023/12/31 08:50:07;;;;;;;56.88;30.55;;;;;;;;;;6178696;23;20016;-65
2023/12/31 08:52:40;;;;;;;54.22;29.77;;;;;;;;;;6178998;23;20047;-65
2023/12/31 08:55:08;;;;;;;49.35;27.77;;;;;;;;;;6178698;23;20016;-65
2023/12/31 08:57:36;;;;;;;72.38;38.30;;;;;;;;;;6178408;23;20024;-66
2023/12/31 09:00:04;;;;;;;81.95;43.20;;;;;;;;;;6178838;23;20025;-66
2023/12/31 09:02:32;;;;;;;81.68;44.13;;;;;;;;;;6178722;23;20032;-66
2023/12/31 09:04:59;;;;;;;57.15;30.33;;;;;;;;;;6178809;23;20076;-66
2023/12/31 09:07:27;;;;;;;83.82;47.58;;;;;;;;;;6179196;23;20048;-67
2023/12/31 09:09:55;;;;;;;92.07;51.30;;;;;;;;;;6153034;23;20021;-67
2023/12/31 09:12:22;;;;;;;103.25;54.92;;;;;;;;;;6179892;23;20025;-66
2023/12/31 09:14:50;;;;;;;89.18;47.00;;;;;;;;;;6178321;23;20360;-66
2023/12/31 09:17:18;;;;;;;88.80;52.88;;;;;;;;;;6179778;23;20025;-66
2023/12/31 09:19:45;;;;;;;44.45;26.73;;;;;;;;;;6178531;23;20025;-67
2023/12/31 09:22:13;;;;;;;55.67;29.40;;;;;;;;;;6178654;23;20048;-67
2023/12/31 09:24:41;;;;;;;49.53;28.45;;;;;;;;;;6178877;23;20079;-67
2023/12/31 09:27:08;;;;;;;59.15;32.63;;;;;;;;;;6177732;23;20028;-66
2023/12/31 09:29:37;;;;;;;52.38;30.38;;;;;;;;;;6178226;23;20079;-66
2023/12/31 09:32:05;;;;;;;51.13;30.15;;;;;;;;;;6178395;23;20017;-66
2023/12/31 09:34:33;;;;;;;135.45;70.50;;;;;;;;;;6179340;23;20035;-65
2023/12/31 09:37:00;;;;;;;56.85;31.88;;;;;;;;;;6178962;23;20041;-66
2023/12/31 09:39:28;;;;;;;63.05;36.22;;;;;;;;;;6178707;23;20072;-65
2023/12/31 09:41:57;;;;;;;62.90;38.63;;;;;;;;;;6178790;23;20665;-66
2023/12/31 09:44:25;;;;;;;62.60;36.75;;;;;;;;;;6179188;23;20017;-66
2023/12/31 09:46:59;;;;;;;76.88;43.50;;;;;;;;;;6179259;23;20031;-66
2023/12/31 09:49:37;;;;;;;82.18;47.80;;;;;;;;;;6177711;23;20020;-67
2023/12/31 09:52:07;;;;;;;103.75;52.95;;;;;;;;;;6179109;23;20025;-66
2023/12/31 09:54:37;;;;;;;56.45;34.97;;;;;;;;;;6178055;23;20218;-67
2023/12/31 09:57:06;;;;;;;54.55;35.20;;;;;;;;;;6177826;23;20017;-67
2023/12/31 09:59:34;;;;;;;60.60;36.00;;;;;;;;;;6178950;23;20356;-67
2023/12/31 10:02:04;;;;;;;73.07;41.75;;;;;;;;;;6178508;23;20028;-67
2023/12/31 10:04:32;;;;;;;61.88;37.38;;;;;;;;;;6177637;23;20016;-67
2023/12/31 10:07:02;;;;;;;90.05;51.78;;;;;;;;;;6176791;23;20025;-67
2023/12/31 10:09:31;;;;;;;82.97;46.83;;;;;;;;;;6178280;23;20017;-67
2023/12/31 10:12:00;;;;;;;91.53;51.90;;;;;;;;;;6178163;23;20374;-67
2023/12/31 10:14:29;;;;;;;79.15;47.17;;;;;;;;;;6178609;23;20013;-67
2023/12/31 10:16:56;;;;;;;58.97;36.60;;;;;;;;;;6177587;23;20075;-67
2023/12/31 10:19:24;;;;;;;57.35;35.45;;;;;;;;;;6177946;23;20102;-66
2023/12/31 10:21:52;;;;;;;99.68;52.63;;;;;;;;;;6178832;23;20509;-67
2023/12/31 10:24:27;;;;;;;76.47;43.40;;;;;;;;;;6178977;23;20017;-67
2023/12/31 10:26:56;;;;;;;58.72;37.70;;;;;;;;;;6179295;23;20021;-68
2023/12/31 10:29:24;;;;;;;66.20;37.38;;;;;;;;;;6178375;23;20024;-67
2023/12/31 10:31:53;;;;;;;71.05;41.85;;;;;;;;;;6179152;23;20132;-67
2023/12/31 10:34:21;;;;;;;61.75;38.30;;;;;;;;;;6178416;23;20468;-66
2023/12/31 10:36:49;;;;;;;57.95;35.47;;;;;;;;;;6178904;23;20025;-66
2023/12/31 10:39:27;;;;;;;44.67;28.15;;;;;;;;;;6177280;23;20087;-67
2023/12/31 10:41:58;;;;;;;55.20;34.03;;;;;;;;;;6178938;23;20337;-67
2023/12/31 10:44:26;;;;;;;40.45;26.45;;;;;;;;;;6178638;23;20013;-70
2023/12/31 10:46:58;;;;;;;40.13;26.27;;;;;;;;;;6178751;23;20092;-69
2023/12/31 10:49:27;;;;;;;47.03;30.65;;;;;;;;;;6177917;23;20033;-70
2023/12/31 10:51:55;;;;;;;48.65;30.17;;;;;;;;;;6174894;23;20025;-70
2023/12/31 10:54:32;;;;;;;48.45;32.17;;;;;;;;;;6176769;23;20037;-70
2023/12/31 10:57:00;;;;;;;46.35;28.65;;;;;;;;;;6176591;23;20009;-70
2023/12/31 10:59:27;;;;;;;47.15;30.73;;;;;;;;;;6175625;23;20028;-70
2023/12/31 11:01:56;;;;;;;49.90;31.35;;;;;;;;;;6176642;23;20032;-70
2023/12/31 11:04:26;;;;;;;84.65;43.50;;;;;;;;;;6175503;23;20025;-70
2023/12/31 11:06:55;;;;;;;187.85;68.40;;;;;;;;;;6177073;23;20509;-70
2023/12/31 11:09:24;;;;;;;568.05;230.27;;;;;;;;;;6177138;23;20092;-70
2023/12/31 11:11:52;;;;;;;59.88;36.20;;;;;;;;;;6178084;23;20095;-71
2023/12/31 11:14:24;;;;;;;809.90;442.63;;;;;;;;;;6177874;23;20342;-71
2023/12/31 11:17:09;;;;;;;230.20;124.95;;;;;;;;;;6177895;23;20084;-71
2023/12/31 11:19:43;;;;;;;50.30;30.67;;;;;;;;;;6179255;23;20636;-70
2023/12/31 11:22:10;;;;;;;83.00;50.47;;;;;;;;;;6177842;23;20499;-71
2023/12/31 11:24:38;;;;;;;38.92;25.27;;;;;;;;;;6178604;23;20084;-70
2023/12/31 11:27:16;;;;;;;87.95;52.25;;;;;;;;;;6179024;23;20132;-71
2023/12/31 11:29:46;;;;;;;118.03;64.80;;;;;;;;;;6178837;23;20347;-71
2023/12/31 11:32:17;;;;;;;52.97;36.33;;;;;;;;;;6176661;23;20021;-71
2023/12/31 11:34:44;;;;;;;40.17;25.35;;;;;;;;;;6176577;23;20017;-68
2023/12/31 11:37:13;;;;;;;73.03;42.30;;;;;;;;;;6177655;23;20029;-72
2023/12/31 11:39:46;;;;;;;40.63;26.65;;;;;;;;;;6177944;23;20052;-72
2023/12/31 11:42:17;;;;;;;35.33;23.73;;;;;;;;;;6178023;23;20099;-72
2023/12/31 11:44:45;;;;;;;31.17;19.38;;;;;;;;;;6177597;23;20021;-71
2023/12/31 11:47:16;;;;;;;39.97;26.60;;;;;;;;;;6180823;23;20025;-70
2023/12/31 11:49:47;;;;;;;30.55;20.35;;;;;;;;;;6180257;23;20025;-71
2023/12/31 11:52:15;;;;;;;31.00;21.00;;;;;;;;;;6177956;23;20041;-70
2023/12/31 11:54:44;;;;;;;52.67;33.63;;;;;;;;;;6177842;23;20017;-71
2023/12/31 11:57:13;;;;;;;50.72;31.80;;;;;;;;;;6177441;23;20037;-70
2023/12/31 11:59:43;;;;;;;49.60;33.00;;;;;;;;;;6177992;23;20027;-70
2023/12/31 12:02:11;;;;;;;65.95;42.42;;;;;;;;;;6177699;23;20075;-71
2023/12/31 12:04:39;;;;;;;72.22;46.90;;;;;;;;;;6177700;23;20020;-73
2023/12/31 12:07:06;;;;;;;51.47;32.78;;;;;;;;;;6177778;23;20359;-70
2023/12/31 12:09:36;;;;;;;43.10;26.33;;;;;;;;;;6177383;23;20045;-71
2023/12/31 12:12:05;;;;;;;64.13;43.30;;;;;;;;;;6177816;23;20100;-68
2023/12/31 12:14:36;;;;;;;63.75;41.45;;;;;;;;;;6177167;23;20436;-68
2023/12/31 12:17:04;;;;;;;34.38;24.10;;;;;;;;;;6176025;23;20032;-69
2023/12/31 12:19:35;;;;;;;34.58;22.67;;;;;;;;;;6177206;23;20049;-69
2023/12/31 12:22:04;;;;;;;53.00;35.45;;;;;;;;;;6178380;23;20036;-69
2023/12/31 12:24:31;;;;;;;43.42;26.38;;;;;;;;;;6179752;23;20815;-69
2023/12/31 12:27:00;;;;;;;54.35;35.95;;;;;;;;;;6179470;23;20582;-68
2023/12/31 12:29:33;;;;;;;35.92;24.00;;;;;;;;;;6154513;23;20100;-68
2023/12/31 12:32:03;;;;;;;28.30;19.02;;;;;;;;;;6178202;23;20045;-68
2023/12/31 12:34:31;;;;;;;26.48;18.05;;;;;;;;;;6177995;23;20040;-68
2023/12/31 12:36:59;;;;;;;26.77;19.52;;;;;;;;;;6179757;23;20076;-68
2023/12/31 12:39:27;;;;;;;60.47;32.83;;;;;;;;;;6178746;23;20017;-68
2023/12/31 12:41:55;;;;;;;142.02;92.85;;;;;;;;;;6179799;23;20116;-68
2023/12/31 12:44:23;;;;;;;29.80;19.67;;;;;;;;;;6177267;23;20036;-68
2023/12/31 12:46:51;;;;;;;40.90;27.60;;;;;;;;;;6180131;23;20032;-67
2023/12/31 12:49:20;;;;;;;46.13;29.70;;;;;;;;;;6179475;23;20479;-67
2023/12/31 12:51:48;;;;;;;38.17;25.65;;;;;;;;;;6179305;23;20021;-69
2023/12/31 12:54:15;;;;;;;30.88;21.55;;;;;;;;;;6179115;23;20017;-70
2023/12/31 12:56:44;;;;;;;33.17;22.15;;;;;;;;;;6173883;23;20100;-69
2023/12/31 12:59:12;;;;;;;27.35;19.63;;;;;;;;;;6175558;23;20127;-69
2023/12/31 13:01:40;;;;;;;55.95;35.42;;;;;;;;;;6177013;23;20020;-69
2023/12/31 13:04:12;;;;;;;311.33;170.02;;;;;;;;;;6179551;23;20032;-71
2023/12/31 13:06:40;;;;;;;261.60;143.20;;;;;;;;;;6178093;23;20017;-71
2023/12/31 13:09:08;;;;;;;51.63;33.08;;;;;;;;;;6178542;23;20025;-68
2023/12/31 13:11:36;;;;;;;67.68;39.47;;;;;;;;;;6178647;23;20025;-70
2023/12/31 13:14:03;;;;;;;120.25;65.28;;;;;;;;;;6178704;23;20109;-69
2023/12/31 13:16:31;;;;;;;33.38;21.00;;;;;;;;;;6178665;23;20024;-69
2023/12/31 13:19:16;;;;;;;23.40;16.50;;;;;;;;;;6179172;23;20048;-68
2023/12/31 13:21:43;;;;;;;28.67;16.58;;;;;;;;;;6179449;23;20246;-68
2023/12/31 13:24:11;;;;;;;37.10;23.27;;;;;;;;;;6178327;23;20032;-68
2023/12/31 13:26:39;;;;;;;29.80;19.02;;;;;;;;;;6179356;23;20100;-68
2023/12/31 13:29:06;;;;;;;75.97;42.55;;;;;;;;;;6176828;23;20439;-68
2023/12/31 13:31:35;;;;;;;72.22;40.95;;;;;;;;;;6179630;23;20087;-68
2023/12/31 13:34:08;;;;;;;39.33;24.75;;;;;;;;;;6177432;23;20087;-68
2023/12/31 13:36:36;;;;;;;33.78;21.55;;;;;;;;;;6178045;23;20432;-69
2023/12/31 13:39:03;;;;;;;28.58;19.42;;;;;;;;;;6179231;23;20021;-68
2023/12/31 13:41:31;;;;;;;27.83;19.40;;;;;;;;;;6178973;23;20591;-68
2023/12/31 13:43:58;;;;;;;30.10;19.90;;;;;;;;;;6179010;23;20040;-69
2023/12/31 13:46:26;;;;;;;29.70;18.13;;;;;;;;;;6178569;23;20043;-68
2023/12/31 13:48:54;;;;;;;54.75;32.83;;;;;;;;;;6179113;23;20032;-70
2023/12/31 13:51:23;;;;;;;113.70;59.60;;;;;;;;;;6178672;23;20013;-71
2023/12/31 13:53:51;;;;;;;53.05;32.50;;;;;;;;;;6178734;23;20502;-70
2023/12/31 13:56:18;;;;;;;61.03;39.55;;;;;;;;;;6178896;23;20020;-69
2023/12/31 13:58:46;;;;;;;126.75;72.97;;;;;;;;;;6179067;23;20432;-70
2023/12/31 14:01:14;;;;;;;105.50;59.13;;;;;;;;;;6178923;23;20027;-71
2023/12/31 14:03:42;;;;;;;84.10;47.17;;;;;;;;;;6179089;23;20025;-70
2023/12/31 14:06:09;;;;;;;136.85;74.10;;;;;;;;;;6179271;23;20325;-70
2023/12/31 14:08:37;;;;;;;148.18;78.63;;;;;;;;;;6178241;23;20012;-69
2023/12/31 14:11:04;;;;;;;131.32;74.07;;;;;;;;;;6177475;23;20025;-69
2023/12/31 14:13:32;;;;;;;130.30;73.20;;;;;;;;;;6179472;23;20291;-69
2023/12/31 14:16:00;;;;;;;192.10;106.63;;;;;;;;;;6178267;23;20087;-69
2023/12/31 14:18:27;;;;;;;94.45;55.85;;;;;;;;;;6177956;23;20106;-70
2023/12/31 14:20:55;;;;;;;115.47;64.50;;;;;;;;;;6177274;23;20056;-69